createdAt,value
2023-04-08T00:00:37.841Z,6.83
2023-04-08T00:03:23.326Z,6.75
2023-04-08T00:06:08.539Z,6.71
2023-04-08T00:08:53.763Z,6.68
2023-04-08T00:11:38.926Z,6.56
2023-04-08T00:14:24.269Z,6.57
2023-04-08T00:17:09.541Z,6.54
2023-04-08T00:19:55.421Z,6.49
2023-04-08T00:22:40.738Z,6.39
2023-04-08T00:25:26.079Z,6.34
2023-04-08T00:28:11.264Z,6.38
2023-04-08T00:30:56.238Z,6.38
2023-04-08T00:33:41.322Z,6.29
2023-04-08T00:36:27.755Z,6.25
2023-04-08T00:39:13.702Z,6.21
2023-04-08T00:41:58.984Z,6.14
2023-04-08T00:44:44.149Z,6.12
2023-04-08T00:47:29.125Z,6.13
2023-04-08T00:50:14.360Z,6.04
2023-04-08T00:52:59.553Z,5.97
2023-04-08T00:55:44.877Z,5.85
2023-04-08T00:58:30.389Z,5.90
2023-04-08T01:01:30.395Z,5.87
2023-04-08T01:04:29.057Z,5.83
2023-04-08T01:07:22.229Z,5.77
2023-04-08T01:10:31.459Z,5.67
2023-04-08T01:13:18.871Z,5.63
2023-04-08T01:16:04.359Z,5.61
2023-04-08T01:18:52.048Z,5.53
2023-04-08T01:21:38.787Z,5.43
2023-04-08T01:24:29.782Z,5.30
2023-04-08T01:27:16.861Z,5.25
2023-04-08T01:30:04.654Z,5.24
2023-04-08T01:32:52.250Z,5.15
2023-04-08T01:35:38.188Z,5.11
2023-04-08T01:38:26.536Z,5.11
2023-04-08T01:41:11.777Z,5.07
2023-04-08T01:43:58.143Z,4.91
2023-04-08T01:46:43.569Z,4.84
2023-04-08T01:49:30.554Z,4.81
2023-04-08T01:52:18.326Z,4.76
2023-04-08T01:55:04.156Z,4.66
2023-04-08T01:57:52.056Z,4.66
2023-04-08T02:00:39.053Z,4.63
2023-04-08T02:03:25.767Z,4.41
2023-04-08T02:06:11.046Z,4.37
2023-04-08T02:08:56.266Z,4.44
2023-04-08T02:11:41.608Z,4.44
2023-04-08T02:14:27.067Z,4.49
2023-04-08T02:17:18.107Z,4.46
2023-04-08T02:20:10.072Z,4.40
2023-04-08T02:23:13.194Z,4.38
2023-04-08T02:25:58.640Z,4.30
2023-04-08T02:28:43.580Z,4.17
2023-04-08T02:31:28.738Z,4.19
2023-04-08T02:34:15.196Z,4.16
2023-04-08T02:37:00.426Z,4.23
2023-04-08T02:39:45.667Z,4.12
2023-04-08T02:42:30.951Z,4.16
2023-04-08T02:45:16.249Z,4.21
2023-04-08T02:48:02.110Z,4.17
2023-04-08T02:50:47.264Z,4.18
2023-04-08T02:53:31.982Z,4.13
2023-04-08T02:56:17.002Z,4.13
2023-04-08T02:59:02.208Z,4.21
2023-04-08T03:01:47.203Z,4.20
2023-04-08T03:04:32.027Z,4.16
2023-04-08T03:07:16.985Z,4.11
2023-04-08T03:10:03.172Z,4.03
2023-04-08T03:12:48.372Z,4.04
2023-04-08T03:15:33.639Z,4.06
2023-04-08T03:18:18.860Z,4.04
2023-04-08T03:21:04.020Z,4.05
2023-04-08T03:23:49.031Z,4.02
2023-04-08T03:26:34.030Z,4.01
2023-04-08T03:29:19.361Z,3.95
2023-04-08T03:32:04.910Z,3.95
2023-04-08T03:34:53.524Z,3.94
2023-04-08T03:37:38.582Z,3.97
2023-04-08T03:40:23.399Z,4.02
2023-04-08T03:43:08.854Z,4.03
2023-04-08T03:45:54.030Z,4.06
2023-04-08T03:48:39.131Z,4.01
2023-04-08T03:51:24.239Z,3.92
2023-04-08T03:54:09.412Z,3.86
2023-04-08T03:56:54.612Z,3.84
2023-04-08T03:59:41.099Z,3.87
2023-04-08T04:02:26.242Z,3.90
2023-04-08T04:05:11.491Z,3.84
2023-04-08T04:07:58.340Z,3.85
2023-04-08T04:10:43.169Z,3.85
2023-04-08T04:13:28.054Z,3.82
2023-04-08T04:16:13.278Z,3.78
2023-04-08T04:18:58.391Z,3.74
2023-04-08T04:21:44.345Z,3.72
2023-04-08T04:24:29.660Z,3.70
2023-04-08T04:27:15.528Z,3.69
2023-04-08T04:30:01.054Z,3.63
2023-04-08T04:32:46.266Z,3.64
2023-04-08T04:35:32.029Z,3.65
2023-04-08T04:38:17.324Z,3.63
2023-04-08T04:41:02.469Z,3.62
2023-04-08T04:43:47.728Z,3.62
2023-04-08T04:46:32.753Z,3.64
2023-04-08T04:49:18.342Z,3.56
2023-04-08T04:52:03.318Z,3.61
2023-04-08T04:54:48.149Z,3.54
2023-04-08T04:57:33.765Z,3.45
2023-04-08T05:00:18.875Z,3.50
2023-04-08T05:03:04.102Z,3.46
2023-04-08T05:05:53.459Z,3.45
2023-04-08T05:08:38.970Z,3.41
2023-04-08T05:11:23.913Z,3.39
2023-04-08T05:14:08.959Z,3.35
2023-04-08T05:16:53.917Z,3.26
2023-04-08T05:19:39.258Z,3.21
2023-04-08T05:22:24.549Z,3.21
2023-04-08T05:25:10.035Z,3.25
2023-04-08T05:27:56.020Z,3.24
2023-04-08T05:30:52.436Z,3.23
2023-04-08T05:33:37.710Z,3.03
2023-04-08T05:36:22.976Z,3.09
2023-04-08T05:39:07.870Z,3.07
2023-04-08T05:41:52.896Z,2.97
2023-04-08T05:44:37.601Z,3.09
2023-04-08T05:47:22.445Z,3.06
2023-04-08T05:50:08.183Z,3.02
2023-04-08T05:52:53.625Z,3.08
2023-04-08T05:55:38.868Z,3.17
2023-04-08T05:58:23.958Z,3.21
2023-04-08T06:01:09.151Z,3.25
2023-04-08T06:03:56.282Z,3.28
2023-04-08T06:06:41.697Z,3.29
2023-04-08T06:09:26.852Z,3.20
2023-04-08T06:12:12.163Z,3.13
2023-04-08T06:14:57.766Z,3.06
2023-04-08T06:17:43.111Z,3.21
2023-04-08T06:20:28.377Z,3.29
2023-04-08T06:23:14.272Z,3.36
2023-04-08T06:25:59.461Z,3.43
2023-04-08T06:28:44.692Z,3.43
2023-04-08T06:31:39.692Z,3.48
2023-04-08T06:34:24.945Z,3.50
2023-04-08T06:37:10.251Z,3.41
2023-04-08T06:39:55.519Z,3.51
2023-04-08T06:42:43.047Z,3.58
2023-04-08T06:45:28.494Z,3.69
2023-04-08T06:48:13.502Z,3.79
2023-04-08T06:51:00.220Z,3.84
2023-04-08T06:53:45.144Z,3.81
2023-04-08T06:56:29.914Z,3.86
2023-04-08T06:59:15.556Z,3.92
2023-04-08T07:02:01.380Z,3.96
2023-04-08T07:04:46.964Z,4.06
2023-04-08T07:07:32.186Z,4.13
2023-04-08T07:10:17.383Z,4.03
2023-04-08T07:13:03.957Z,4.26
2023-04-08T07:15:49.128Z,4.30
2023-04-08T07:18:34.254Z,4.34
2023-04-08T07:21:19.470Z,4.41
2023-04-08T07:24:04.692Z,4.58
2023-04-08T07:26:50.065Z,4.73
2023-04-08T07:29:35.352Z,4.81
2023-04-08T07:32:20.928Z,4.89
2023-04-08T07:35:06.517Z,4.99
2023-04-08T07:37:52.981Z,5.11
2023-04-08T07:40:38.008Z,5.21
2023-04-08T07:43:22.991Z,5.26
2023-04-08T07:46:08.020Z,5.31
2023-04-08T07:48:53.381Z,5.50
2023-04-08T07:51:39.460Z,5.61
2023-04-08T07:54:24.725Z,5.67
2023-04-08T07:57:09.901Z,5.78
2023-04-08T07:59:55.639Z,5.91
2023-04-08T08:02:40.995Z,6.02
2023-04-08T08:05:26.322Z,6.21
2023-04-08T08:08:14.260Z,6.28
2023-04-08T08:10:59.165Z,6.45
2023-04-08T08:13:44.516Z,6.67
2023-04-08T08:16:31.802Z,6.83
2023-04-08T08:19:16.985Z,7.01
2023-04-08T08:22:02.060Z,7.12
2023-04-08T08:24:47.370Z,7.29
2023-04-08T08:27:34.381Z,7.42
2023-04-08T08:30:21.989Z,7.68
2023-04-08T08:33:06.963Z,7.87
2023-04-08T08:35:52.321Z,7.95
2023-04-08T08:38:37.339Z,8.08
2023-04-08T08:41:22.347Z,8.16
2023-04-08T08:44:08.624Z,8.27
2023-04-08T08:46:53.926Z,8.30
2023-04-08T08:49:39.035Z,8.41
2023-04-08T08:52:24.093Z,8.60
2023-04-08T08:55:27.653Z,8.79
2023-04-08T08:58:14.278Z,8.84
2023-04-08T09:00:59.308Z,9.08
2023-04-08T09:03:44.326Z,9.27
2023-04-08T09:06:29.637Z,9.48
2023-04-08T09:09:14.873Z,9.74
2023-04-08T09:12:06.928Z,9.77
2023-04-08T09:15:03.181Z,9.82
2023-04-08T09:17:48.442Z,10.08
2023-04-08T09:20:33.670Z,10.14
2023-04-08T09:23:18.918Z,10.19
2023-04-08T09:26:12.744Z,10.44
2023-04-08T09:29:10.920Z,10.50
2023-04-08T09:32:04.053Z,10.58
2023-04-08T09:34:48.996Z,10.68
2023-04-08T09:37:34.180Z,10.82
2023-04-08T09:40:19.446Z,10.95
2023-04-08T09:43:06.048Z,11.00
2023-04-08T09:45:52.413Z,11.02
2023-04-08T09:48:42.983Z,11.09
2023-04-08T09:51:32.420Z,11.27
2023-04-08T09:54:23.111Z,11.49
2023-04-08T09:57:16.508Z,11.63
2023-04-08T10:00:08.538Z,11.75
2023-04-08T10:03:34.651Z,11.64
2023-04-08T10:06:21.870Z,11.66
2023-04-08T10:09:07.636Z,11.82
2023-04-08T10:11:53.696Z,12.06
2023-04-08T10:14:39.328Z,12.17
2023-04-08T10:17:27.767Z,12.36
2023-04-08T10:20:34.568Z,12.42
2023-04-08T10:23:57.681Z,12.31
2023-04-08T10:26:44.628Z,12.27
2023-04-08T10:29:29.886Z,12.07
2023-04-08T10:32:29.085Z,12.08
2023-04-08T10:35:30.110Z,12.28
2023-04-08T10:38:16.314Z,12.29
2023-04-08T10:41:02.485Z,12.41
2023-04-08T10:43:47.515Z,12.43
2023-04-08T10:46:38.235Z,12.32
2023-04-08T10:49:33.247Z,12.14
2023-04-08T10:52:20.021Z,12.24
2023-04-08T10:55:05.519Z,12.35
2023-04-08T10:57:51.293Z,12.68
2023-04-08T11:00:40.130Z,12.68
2023-04-08T11:03:27.879Z,12.48
2023-04-08T11:06:13.290Z,12.60
2023-04-08T11:09:00.165Z,12.50
2023-04-08T11:11:46.510Z,12.34
2023-04-08T11:14:31.381Z,12.20
2023-04-08T11:17:17.836Z,12.15
2023-04-08T11:20:06.291Z,12.18
2023-04-08T11:22:52.077Z,12.22
2023-04-08T11:25:37.150Z,12.60
2023-04-08T11:28:22.722Z,13.05
2023-04-08T11:31:09.034Z,13.09
2023-04-08T11:33:56.738Z,12.94
2023-04-08T11:36:42.392Z,12.87
2023-04-08T11:39:27.511Z,12.86
2023-04-08T11:42:29.769Z,13.06
2023-04-08T11:45:17.116Z,13.59
2023-04-08T11:48:18.016Z,13.74
2023-04-08T11:51:04.818Z,13.62
2023-04-08T11:53:53.956Z,13.32
2023-04-08T11:56:47.188Z,13.20
2023-04-08T11:59:32.218Z,13.19
2023-04-08T12:02:17.455Z,13.23
2023-04-08T12:05:02.761Z,13.28
2023-04-08T12:07:48.204Z,13.90
2023-04-08T12:10:33.333Z,14.25
2023-04-08T12:13:18.488Z,14.65
2023-04-08T12:16:03.857Z,14.69
2023-04-08T12:18:50.210Z,14.43
2023-04-08T12:21:36.112Z,14.71
2023-04-08T12:24:21.484Z,14.82
2023-04-08T12:27:06.709Z,14.90
2023-04-08T12:29:53.306Z,14.71
2023-04-08T12:32:38.522Z,14.87
2023-04-08T12:35:23.983Z,14.82
2023-04-08T12:38:08.954Z,14.70
2023-04-08T12:40:55.310Z,14.89
2023-04-08T12:43:40.685Z,15.35
2023-04-08T12:46:25.878Z,15.65
2023-04-08T12:49:12.214Z,15.81
2023-04-08T12:51:57.760Z,15.57
2023-04-08T12:54:42.839Z,15.59
2023-04-08T12:57:29.164Z,15.37
2023-04-08T13:00:14.650Z,15.07
2023-04-08T13:02:59.907Z,14.74
2023-04-08T13:05:45.184Z,15.38
2023-04-08T13:08:30.149Z,15.64
2023-04-08T13:11:15.579Z,15.41
2023-04-08T13:14:00.839Z,15.35
2023-04-08T13:16:46.520Z,15.26
2023-04-08T13:19:31.810Z,15.12
2023-04-08T13:22:16.972Z,15.10
2023-04-08T13:25:02.786Z,15.06
2023-04-08T13:27:47.946Z,15.07
2023-04-08T13:30:33.120Z,15.53
2023-04-08T13:33:18.007Z,15.52
2023-04-08T13:36:03.081Z,15.57
2023-04-08T13:38:48.440Z,15.67
2023-04-08T13:41:35.000Z,15.71
2023-04-08T13:44:20.033Z,15.96
2023-04-08T13:47:05.025Z,15.60
2023-04-08T13:49:50.590Z,15.29
2023-04-08T13:52:35.487Z,15.02
2023-04-08T13:55:21.056Z,14.92
2023-04-08T13:58:11.256Z,14.87
2023-04-08T14:00:59.513Z,14.87
2023-04-08T14:03:44.799Z,14.98
2023-04-08T14:06:29.947Z,16.15
2023-04-08T14:09:15.103Z,16.93
2023-04-08T14:12:00.305Z,17.31
2023-04-08T14:14:45.463Z,17.31
2023-04-08T14:17:30.312Z,16.61
2023-04-08T14:20:15.542Z,16.80
2023-04-08T14:23:00.647Z,17.51
2023-04-08T14:25:45.945Z,18.12
2023-04-08T14:28:30.960Z,17.43
2023-04-08T14:31:16.257Z,16.76
2023-04-08T14:34:01.518Z,16.37
2023-04-08T14:36:46.697Z,15.96
2023-04-08T14:39:31.628Z,15.58
2023-04-08T14:42:18.243Z,15.28
2023-04-08T14:45:03.701Z,15.08
2023-04-08T14:47:48.885Z,15.39
2023-04-08T14:50:33.867Z,15.88
2023-04-08T14:53:19.090Z,16.94
2023-04-08T14:56:05.064Z,16.97
2023-04-08T14:58:50.463Z,16.28
2023-04-08T15:01:36.242Z,15.57
2023-04-08T15:04:21.408Z,15.02
2023-04-08T15:07:06.564Z,14.64
2023-04-08T15:09:51.729Z,14.78
2023-04-08T15:12:36.785Z,15.96
2023-04-08T15:15:21.830Z,16.73
2023-04-08T15:18:07.256Z,17.37
2023-04-08T15:20:52.314Z,17.76
2023-04-08T15:23:41.845Z,17.50
2023-04-08T15:26:27.737Z,16.89
2023-04-08T15:29:13.358Z,15.99
2023-04-08T15:31:58.713Z,15.40
2023-04-08T15:34:43.931Z,15.46
2023-04-08T15:37:28.990Z,16.08
2023-04-08T15:40:14.536Z,16.21
2023-04-08T15:42:59.652Z,16.19
2023-04-08T15:45:44.833Z,16.34
2023-04-08T15:48:29.959Z,16.14
2023-04-08T15:51:15.438Z,16.03
2023-04-08T15:54:01.403Z,16.01
2023-04-08T15:56:46.797Z,15.78
2023-04-08T15:59:32.320Z,15.63
2023-04-08T16:02:17.706Z,15.66
2023-04-08T16:05:03.461Z,15.74
2023-04-08T16:07:48.632Z,15.48
2023-04-08T16:10:34.389Z,15.36
2023-04-08T16:13:19.423Z,15.00
2023-04-08T16:16:04.694Z,14.78
2023-04-08T16:18:50.151Z,14.64
2023-04-08T16:21:36.062Z,14.55
2023-04-08T16:24:21.529Z,14.33
2023-04-08T16:27:06.742Z,14.08
2023-04-08T16:29:52.061Z,13.92
2023-04-08T16:32:37.212Z,13.78
2023-04-08T16:35:22.364Z,13.72
2023-04-08T16:38:07.705Z,13.75
2023-04-08T16:40:54.155Z,13.72
2023-04-08T16:43:39.330Z,13.59
2023-04-08T16:46:24.532Z,13.57
2023-04-08T16:49:09.764Z,13.42
2023-04-08T16:51:54.953Z,13.31
2023-04-08T16:54:39.859Z,13.21
2023-04-08T16:57:25.283Z,13.22
2023-04-08T17:00:10.946Z,13.22
2023-04-08T17:02:57.290Z,13.05
2023-04-08T17:05:42.417Z,12.96
2023-04-08T17:08:27.722Z,12.84
2023-04-08T17:11:14.689Z,12.68
2023-04-08T17:13:59.888Z,12.64
2023-04-08T17:16:44.897Z,12.61
2023-04-08T17:19:29.896Z,12.46
2023-04-08T17:22:15.124Z,12.36
2023-04-08T17:25:00.484Z,12.37
2023-04-08T17:27:45.685Z,12.27
2023-04-08T17:30:30.565Z,12.11
2023-04-08T17:33:15.957Z,12.08
2023-04-08T17:36:01.586Z,12.08
2023-04-08T17:38:49.341Z,12.04
2023-04-08T17:41:40.194Z,12.02
2023-04-08T17:44:30.088Z,11.94
2023-04-08T17:47:15.529Z,11.82
2023-04-08T17:50:00.461Z,11.78
2023-04-08T17:52:48.820Z,11.67
2023-04-08T17:55:33.910Z,11.55
2023-04-08T17:58:19.080Z,11.45
2023-04-08T18:01:04.282Z,11.40
2023-04-08T18:03:52.701Z,11.36
2023-04-08T18:06:38.449Z,11.29
2023-04-08T18:09:23.321Z,11.23
2023-04-08T18:12:08.507Z,11.15
2023-04-08T18:14:53.748Z,11.12
2023-04-08T18:17:38.690Z,11.06
2023-04-08T18:20:24.024Z,10.96
2023-04-08T18:23:09.061Z,10.88
2023-04-08T18:25:54.457Z,10.82
2023-04-08T18:28:39.940Z,10.71
2023-04-08T18:31:25.127Z,10.57
2023-04-08T18:34:10.683Z,10.52
2023-04-08T18:36:56.302Z,10.50
2023-04-08T18:39:41.594Z,10.50
2023-04-08T18:42:26.815Z,10.50
2023-04-08T18:45:12.058Z,10.48
2023-04-08T18:47:57.384Z,10.43
2023-04-08T18:50:42.509Z,10.35
2023-04-08T18:53:28.604Z,10.30
2023-04-08T18:56:17.994Z,10.22
2023-04-08T18:59:03.603Z,10.17
2023-04-08T19:01:48.914Z,10.15
2023-04-08T19:04:33.992Z,10.08
2023-04-08T19:07:19.051Z,10.01
2023-04-08T19:10:04.667Z,9.96
2023-04-08T19:12:49.751Z,9.99
2023-04-08T19:15:35.544Z,9.95
2023-04-08T19:18:20.693Z,9.77
2023-04-08T19:21:06.210Z,9.79
2023-04-08T19:23:51.616Z,9.79
2023-04-08T19:26:36.736Z,9.67
2023-04-08T19:29:23.398Z,9.69
2023-04-08T19:32:08.374Z,9.64
2023-04-08T19:34:53.414Z,9.58
2023-04-08T19:37:38.335Z,9.53
2023-04-08T19:40:23.405Z,9.52
2023-04-08T19:43:08.658Z,9.47
2023-04-08T19:45:54.593Z,9.37
2023-04-08T19:48:39.851Z,9.37
2023-04-08T19:51:25.102Z,9.30
2023-04-08T19:54:11.937Z,9.33
2023-04-08T19:56:58.526Z,9.26
2023-04-08T19:59:43.567Z,9.13
2023-04-08T20:02:28.939Z,9.14
2023-04-08T20:05:16.471Z,9.04
2023-04-08T20:08:01.725Z,9.09
2023-04-08T20:10:46.784Z,8.98
2023-04-08T20:13:31.789Z,8.95
2023-04-08T20:16:16.938Z,8.94
2023-04-08T20:19:02.011Z,8.87
2023-04-08T20:21:47.295Z,8.80
2023-04-08T20:24:32.628Z,8.81
2023-04-08T20:27:19.019Z,8.71
2023-04-08T20:30:05.429Z,8.72
2023-04-08T20:32:50.575Z,8.68
2023-04-08T20:35:37.450Z,8.64
2023-04-08T20:38:23.628Z,8.54
2023-04-08T20:41:08.378Z,8.51
2023-04-08T20:43:54.386Z,8.56
2023-04-08T20:46:41.250Z,8.53
2023-04-08T20:49:26.665Z,8.54
2023-04-08T20:52:11.657Z,8.43
2023-04-08T20:54:56.591Z,8.34
2023-04-08T20:57:42.114Z,8.28
2023-04-08T21:00:27.849Z,8.21
2023-04-08T21:03:14.059Z,8.14
2023-04-08T21:05:59.576Z,8.12
2023-04-08T21:08:45.304Z,8.07
2023-04-08T21:11:30.309Z,8.04
2023-04-08T21:14:15.745Z,8.03
2023-04-08T21:17:01.083Z,7.99
2023-04-08T21:19:46.735Z,7.83
2023-04-08T21:22:32.742Z,7.85
2023-04-08T21:25:18.521Z,7.82
2023-04-08T21:28:03.640Z,7.77
2023-04-08T21:30:49.072Z,7.76
2023-04-08T21:33:34.145Z,7.69
2023-04-08T21:36:20.354Z,7.60
2023-04-08T21:39:06.241Z,7.48
2023-04-08T21:41:51.319Z,7.51
2023-04-08T21:44:36.596Z,7.51
2023-04-08T21:47:21.852Z,7.51
2023-04-08T21:50:07.901Z,7.39
2023-04-08T21:52:53.106Z,7.31
2023-04-08T21:55:38.161Z,7.16
2023-04-08T21:58:23.438Z,7.16
2023-04-08T22:01:08.405Z,7.14
2023-04-08T22:03:55.475Z,7.11
2023-04-08T22:06:41.386Z,7.03
2023-04-08T22:09:27.075Z,6.98
2023-04-08T22:12:12.320Z,6.87
2023-04-08T22:14:57.780Z,6.92
2023-04-08T22:17:42.959Z,6.96
2023-04-08T22:20:28.348Z,6.96
2023-04-08T22:23:13.421Z,6.97
2023-04-08T22:25:58.648Z,6.94
2023-04-08T22:28:44.519Z,7.00
2023-04-08T22:31:29.413Z,7.05
2023-04-08T22:34:14.436Z,7.12
2023-04-08T22:36:59.205Z,7.05
2023-04-08T22:39:44.238Z,6.84
2023-04-08T22:42:29.481Z,6.70
2023-04-08T22:45:14.894Z,6.68
2023-04-08T22:48:00.076Z,6.70
2023-04-08T22:50:45.229Z,6.69
2023-04-08T22:53:30.171Z,6.63
2023-04-08T22:56:15.411Z,6.69
2023-04-08T22:59:01.002Z,6.67
2023-04-08T23:01:46.430Z,6.66
2023-04-08T23:04:31.848Z,6.61
2023-04-08T23:07:16.845Z,6.62
2023-04-08T23:10:01.953Z,6.67
2023-04-08T23:12:47.281Z,6.59
2023-04-08T23:15:32.170Z,6.72
2023-04-08T23:18:17.226Z,6.66
2023-04-08T23:21:02.216Z,6.71
2023-04-08T23:23:47.532Z,6.70
2023-04-08T23:26:32.789Z,6.69
2023-04-08T23:29:18.017Z,6.75
2023-04-08T23:32:03.168Z,6.77
2023-04-08T23:34:48.308Z,6.60
2023-04-08T23:37:33.296Z,6.61
2023-04-08T23:40:18.326Z,6.61
2023-04-08T23:43:03.587Z,6.60
2023-04-08T23:45:48.689Z,6.47
2023-04-08T23:48:34.067Z,6.46
2023-04-08T23:51:19.258Z,6.44
2023-04-08T23:54:04.314Z,6.41
2023-04-08T23:56:49.572Z,6.34
2023-04-08T23:59:34.762Z,6.29
